Time;durP1;ratioP1;P1;durP2;ratioP2;P2;SDS_P1;SDS_P2;PMS_P1;PMS_P2;Temp;Humidity;BMP_temperature;BMP_pressure;BME280_temperature;BME280_humidity;BME280_pressure;Samples;Min_cycle;Max_cycle;Signal;HPM_P1;HPM_P2
2022/06/29 00:00:52;;;;;;;3.17;2.03;;;19.60;1.00;;;;;;5049880;28;20767;-52
2022/06/29 00:03:19;;;;;;;2.30;2.10;;;19.50;1.00;;;;;;5046774;28;20705;-52
2022/06/29 00:05:46;;;;;;;2.40;2.20;;;19.50;1.00;;;;;;5050137;28;20564;-51
2022/06/29 00:08:14;;;;;;;3.17;2.37;;;19.50;1.00;;;;;;5049815;28;20717;-53
2022/06/29 00:10:41;;;;;;;2.60;2.30;;;19.50;99.90;;;;;;5045263;28;20300;-52
2022/06/29 00:13:08;;;;;;;3.43;2.27;;;19.50;1.00;;;;;;5046387;28;20258;-52
2022/06/29 00:15:35;;;;;;;6.43;4.33;;;19.40;1.00;;;;;;5048757;28;20961;-52
2022/06/29 00:18:02;;;;;;;3.43;2.63;;;19.40;1.00;;;;;;5049813;28;20207;-52
2022/06/29 00:20:29;;;;;;;3.20;2.03;;;19.30;1.00;;;;;;5048224;28;20292;-52
2022/06/29 00:22:56;;;;;;;5.27;2.53;;;19.30;1.00;;;;;;5049463;28;20306;-53
2022/06/29 00:25:23;;;;;;;4.33;3.00;;;19.20;1.00;;;;;;5048687;28;20235;-53
2022/06/29 00:27:50;;;;;;;3.00;2.43;;;19.10;1.00;;;;;;5049161;28;20206;-49
2022/06/29 00:30:17;;;;;;;4.50;2.73;;;19.10;1.00;;;;;;5044966;28;20201;-51
2022/06/29 00:32:44;;;;;;;2.67;2.40;;;19.00;1.00;;;;;;5048449;28;20730;-51
2022/06/29 00:35:13;;;;;;;3.03;2.43;;;19.10;63.40;;;;;;5052282;28;20210;-51
2022/06/29 00:37:39;;;;;;;3.50;2.90;;;19.00;1.00;;;;;;5050759;28;20207;-51
2022/06/29 00:40:07;;;;;;;4.70;2.70;;;19.00;99.90;;;;;;5048323;28;20572;-52
2022/06/29 00:42:34;;;;;;;2.93;2.57;;;19.00;99.90;;;;;;5049484;28;20227;-50
2022/06/29 00:45:01;;;;;;;2.83;2.63;;;19.00;99.90;;;;;;5045443;28;20662;-50
2022/06/29 00:47:28;;;;;;;5.37;2.73;;;18.90;99.90;;;;;;5046311;28;20203;-51
2022/06/29 00:49:55;;;;;;;5.47;3.20;;;18.90;99.90;;;;;;5045049;28;20658;-49
2022/06/29 00:52:26;;;;;;;3.93;3.20;;;18.90;99.90;;;;;;5034228;28;20665;-55
2022/06/29 00:54:59;;;;;;;4.77;2.93;;;18.90;99.90;;;;;;5044036;28;20683;-52
2022/06/29 00:57:28;;;;;;;6.17;3.20;;;18.80;99.90;;;;;;5047891;28;20238;-51
2022/06/29 00:59:58;;;;;;;3.60;3.30;;;18.80;1.00;;;;;;5044730;28;20239;-52
2022/06/29 01:02:33;;;;;;;5.93;3.40;;;18.80;1.00;;;;;;5047657;28;20624;-50
2022/06/29 01:05:02;;;;;;;3.77;3.37;;;18.80;1.00;;;;;;5046172;28;20199;-53
2022/06/29 01:07:30;;;;;;;4.27;3.20;;;18.80;1.00;;;;;;5049488;28;20214;-50
2022/06/29 01:09:58;;;;;;;6.53;3.80;;;18.80;1.00;;;;;;5044848;28;20219;-52
2022/06/29 01:12:25;;;;;;;4.10;3.57;;;18.80;1.00;;;;;;5042105;28;20199;-52
2022/06/29 01:14:53;;;;;;;5.40;3.87;;;18.80;1.00;;;;;;5046879;28;20204;-50
2022/06/29 01:17:22;;;;;;;4.10;3.10;;;18.70;1.00;;;;;;5044634;28;20208;-51
2022/06/29 01:19:49;;;;;;;5.43;3.77;;;18.60;1.00;;;;;;5045422;28;20250;-50
2022/06/29 01:22:19;;;;;;;4.03;3.50;;;18.60;1.00;;;;;;5045360;28;20203;-51
2022/06/29 01:24:48;;;;;;;5.77;3.93;;;18.60;1.00;;;;;;5044656;28;20239;-53
2022/06/29 01:27:18;;;;;;;6.83;4.10;;;18.60;1.00;;;;;;5044884;28;20204;-50
2022/06/29 01:29:45;;;;;;;4.20;3.80;;;18.60;1.00;;;;;;5044743;28;20203;-50
2022/06/29 01:32:13;;;;;;;7.10;3.57;;;18.50;1.00;;;;;;5047658;28;20306;-53
2022/06/29 01:34:41;;;;;;;5.07;3.93;;;18.50;1.00;;;;;;5048229;28;20541;-50
2022/06/29 01:37:08;;;;;;;5.13;3.87;;;18.50;1.00;;;;;;5048056;28;20673;-51
2022/06/29 01:39:35;;;;;;;5.07;3.97;;;18.50;1.00;;;;;;5052234;28;20220;-51
2022/06/29 01:42:03;;;;;;;4.10;3.70;;;18.50;1.00;;;;;;5052144;28;20209;-50
2022/06/29 01:44:30;;;;;;;4.70;3.67;;;18.40;1.00;;;;;;5048360;28;20220;-52
2022/06/29 01:46:57;;;;;;;4.17;3.80;;;18.40;1.00;;;;;;5047417;28;20227;-52
2022/06/29 01:49:25;;;;;;;5.33;4.43;;;18.40;11.70;;;;;;5047714;28;20749;-52
2022/06/29 01:51:51;;;;;;;4.87;4.27;;;18.40;1.00;;;;;;5048800;28;20195;-52
2022/06/29 01:54:18;;;;;;;4.73;3.97;;;18.40;1.00;;;;;;5048047;28;20237;-52
2022/06/29 01:56:45;;;;;;;6.97;4.00;;;18.40;99.90;;;;;;5028504;28;20713;-51
2022/06/29 01:59:12;;;;;;;4.10;3.73;;;18.40;99.90;;;;;;5029518;28;20334;-53
2022/06/29 02:01:39;;;;;;;4.30;3.73;;;18.40;99.90;;;;;;5051143;28;20203;-52
2022/06/29 02:04:06;;;;;;;4.13;3.77;;;18.40;99.90;;;;;;5053074;28;20336;-52
2022/06/29 02:06:33;;;;;;;5.50;4.23;;;18.40;99.90;;;;;;5035440;28;20692;-52
2022/06/29 02:09:00;;;;;;;5.47;4.20;;;18.40;99.90;;;;;;5048336;28;20328;-53
2022/06/29 02:11:27;;;;;;;4.70;4.40;;;18.30;99.90;;;;;;5048570;28;20208;-50
2022/06/29 02:13:54;;;;;;;5.97;4.07;;;18.20;1.00;;;;;;5049060;28;20207;-51
2022/06/29 02:16:21;;;;;;;5.60;4.67;;;18.20;1.00;;;;;;5048141;28;20211;-50
2022/06/29 02:18:48;;;;;;;4.73;4.20;;;18.20;1.00;;;;;;5048833;28;20638;-52
2022/06/29 02:21:15;;;;;;;6.23;4.63;;;18.20;1.00;;;;;;5047502;28;20219;-50
2022/06/29 02:23:42;;;;;;;5.97;4.67;;;18.20;1.00;;;;;;5046369;28;20799;-53
2022/06/29 02:26:09;;;;;;;4.77;4.23;;;18.20;1.00;;;;;;5047784;28;20298;-50
2022/06/29 02:28:36;;;;;;;5.83;5.30;;;18.20;1.00;;;;;;5048673;28;20213;-54
2022/06/29 02:36:33;;;;;;;5.90;4.43;;;18.20;1.00;;;;;;5050523;28;20771;-53
2022/06/29 02:39:01;;;;;;;4.97;4.27;;;18.10;1.00;;;;;;5047905;28;20211;-53
2022/06/29 02:41:28;;;;;;;5.77;4.43;;;18.10;1.00;;;;;;5045229;28;20214;-51
2022/06/29 02:43:55;;;;;;;6.47;5.20;;;18.10;1.00;;;;;;5046867;28;20717;-51
2022/06/29 02:46:22;;;;;;;5.10;4.47;;;18.20;1.00;;;;;;5045019;28;20242;-51
2022/06/29 02:48:49;;;;;;;5.50;4.90;;;18.10;1.00;;;;;;5044567;28;20958;-53
2022/06/29 02:51:15;;;;;;;7.93;5.43;;;18.10;1.00;;;;;;5046144;28;20191;-53
2022/06/29 02:53:42;;;;;;;6.03;5.33;;;18.10;1.00;;;;;;5049031;28;20199;-53
2022/06/29 02:56:09;;;;;;;6.30;4.80;;;18.00;1.00;;;;;;5047463;28;20261;-51
2022/06/29 02:58:36;;;;;;;5.13;4.53;;;18.00;1.00;;;;;;5045658;28;20231;-52
2022/06/29 03:01:03;;;;;;;6.20;5.00;;;18.00;1.00;;;;;;5051644;28;20285;-54
2022/06/29 03:03:30;;;;;;;5.20;4.43;;;18.00;1.00;;;;;;5041011;28;20245;-51
2022/06/29 03:05:57;;;;;;;6.57;4.97;;;18.00;1.00;;;;;;5053959;28;20286;-52
2022/06/29 03:08:24;;;;;;;4.93;4.53;;;17.90;1.00;;;;;;5049913;28;20754;-53
2022/06/29 03:10:50;;;;;;;5.20;4.70;;;17.90;1.00;;;;;;5050073;28;20250;-52
2022/06/29 03:13:17;;;;;;;5.20;4.70;;;17.90;1.00;;;;;;5049049;28;20619;-51
2022/06/29 03:15:44;;;;;;;7.03;4.73;;;18.00;1.00;;;;;;5048038;28;20294;-51
2022/06/29 03:18:11;;;;;;;5.33;4.37;;;17.90;1.00;;;;;;5051490;28;20653;-52
2022/06/29 03:20:38;;;;;;;4.97;4.50;;;17.90;1.00;;;;;;5048849;28;20242;-52
2022/06/29 03:23:05;;;;;;;7.10;4.67;;;17.90;1.00;;;;;;5048610;28;20303;-52
2022/06/29 03:25:31;;;;;;;5.27;4.77;;;17.80;1.00;;;;;;5050951;28;20740;-50
2022/06/29 03:27:58;;;;;;;5.00;4.60;;;17.80;1.00;;;;;;5049643;28;20199;-54
2022/06/29 03:30:25;;;;;;;5.73;4.80;;;17.80;1.00;;;;;;5048406;28;20334;-50
2022/06/29 03:32:52;;;;;;;5.03;4.63;;;17.90;1.00;;;;;;5049954;28;20200;-50
2022/06/29 03:35:19;;;;;;;7.50;5.40;;;17.80;1.00;;;;;;5051067;28;20204;-52
2022/06/29 03:37:46;;;;;;;5.03;4.53;;;17.80;1.00;;;;;;5045816;28;20763;-52
2022/06/29 03:40:13;;;;;;;6.23;4.80;;;17.70;1.00;;;;;;5046495;28;20211;-51
2022/06/29 03:42:39;;;;;;;6.83;5.53;;;17.70;93.60;;;;;;5045179;28;20800;-52
2022/06/29 03:45:06;;;;;;;7.63;4.97;;;17.70;99.90;;;;;;5045210;28;20699;-52
2022/06/29 03:47:33;;;;;;;6.03;5.23;;;17.70;99.90;;;;;;5048139;28;20453;-51
2022/06/29 03:50:00;;;;;;;7.07;5.20;;;17.70;99.90;;;;;;5048176;28;20196;-50
2022/06/29 03:52:27;;;;;;;6.20;4.73;;;17.70;99.90;;;;;;5043603;28;20298;-50
2022/06/29 03:54:54;;;;;;;5.50;5.00;;;17.70;99.90;;;;;;5048451;28;20234;-52
2022/06/29 03:57:21;;;;;;;5.73;4.50;;;17.70;1.00;;;;;;5046480;28;20214;-51
2022/06/29 03:59:48;;;;;;;7.13;5.27;;;17.70;1.00;;;;;;5048009;28;20239;-50
2022/06/29 04:02:15;;;;;;;5.67;4.57;;;17.70;1.00;;;;;;5046806;28;21285;-51
2022/06/29 04:04:42;;;;;;;6.93;5.10;;;17.70;99.90;;;;;;5049519;28;20323;-52
2022/06/29 04:07:09;;;;;;;5.23;4.77;;;17.70;99.90;;;;;;5052902;28;20663;-50
2022/06/29 04:09:35;;;;;;;5.93;4.70;;;17.70;1.00;;;;;;5050675;28;20644;-52
2022/06/29 04:12:03;;;;;;;5.13;4.70;;;17.70;99.90;;;;;;5047714;28;20334;-51
2022/06/29 04:14:30;;;;;;;6.93;4.73;;;17.70;1.00;;;;;;5032384;28;20245;-52
2022/06/29 04:16:58;;;;;;;8.30;5.87;;;17.70;1.00;;;;;;5049638;28;20299;-49
2022/06/29 04:19:25;;;;;;;7.87;5.33;;;17.70;1.00;;;;;;5049647;28;20249;-49
2022/06/29 04:21:53;;;;;;;7.07;5.20;;;17.70;99.90;;;;;;5049760;28;20339;-49
2022/06/29 04:24:21;;;;;;;6.50;5.37;;;17.80;1.00;;;;;;5050741;28;20223;-51
2022/06/29 04:26:48;;;;;;;7.13;5.47;;;17.70;1.00;;;;;;5046629;28;20254;-51
2022/06/29 04:29:15;;;;;;;6.47;5.17;;;17.70;1.00;;;;;;5050154;28;20302;-50
2022/06/29 04:31:41;;;;;;;5.40;4.90;;;17.70;1.00;;;;;;5046037;28;20231;-55
2022/06/29 04:34:08;;;;;;;5.73;5.27;;;17.80;1.00;;;;;;5049001;28;20414;-51
2022/06/29 04:36:35;;;;;;;6.33;5.73;;;17.90;1.00;;;;;;5045537;28;20299;-53
2022/06/29 04:39:02;;;;;;;6.27;5.50;;;17.90;1.00;;;;;;5048216;28;20197;-53
2022/06/29 04:41:29;;;;;;;7.20;5.70;;;17.80;1.00;;;;;;5028164;28;20576;-54
2022/06/29 04:43:56;;;;;;;6.70;6.00;;;17.90;1.00;;;;;;5045407;28;20280;-52
2022/06/29 04:46:23;;;;;;;6.40;5.83;;;17.90;1.00;;;;;;5045248;28;20676;-51
2022/06/29 04:49:01;;;;;;;6.30;5.77;;;17.90;1.00;;;;;;5048504;28;20203;-52
2022/06/29 04:51:30;;;;;;;7.13;5.80;;;17.90;1.00;;;;;;5044309;28;20254;-51
2022/06/29 04:53:58;;;;;;;6.63;6.13;;;18.00;1.00;;;;;;5045167;28;20568;-52
2022/06/29 04:56:28;;;;;;;7.50;5.73;;;17.90;1.00;;;;;;5043297;28;20812;-50
2022/06/29 04:58:55;;;;;;;6.67;6.07;;;18.00;1.00;;;;;;5041876;28;20758;-51
2022/06/29 05:01:26;;;;;;;7.50;5.97;;;18.00;99.90;;;;;;5041268;28;20296;-51
2022/06/29 05:03:55;;;;;;;6.60;6.00;;;18.10;1.00;;;;;;5045806;28;20283;-51
2022/06/29 05:06:22;;;;;;;7.73;6.30;;;18.10;99.90;;;;;;5046088;28;20228;-52
2022/06/29 05:08:50;;;;;;;6.90;6.30;;;18.20;99.90;;;;;;5046463;28;20250;-53
2022/06/29 05:11:18;;;;;;;7.27;6.60;;;18.20;99.90;;;;;;5044535;28;20261;-51
2022/06/29 05:13:45;;;;;;;7.27;6.67;;;18.20;1.00;;;;;;5044364;28;20707;-51
2022/06/29 05:16:13;;;;;;;7.20;6.30;;;18.20;1.00;;;;;;5047316;28;20239;-54
2022/06/29 05:18:40;;;;;;;7.33;6.63;;;18.20;1.00;;;;;;5049861;28;20653;-52
2022/06/29 05:21:09;;;;;;;8.53;6.33;;;18.30;1.00;;;;;;5052790;28;20216;-51
2022/06/29 05:23:36;;;;;;;8.57;7.17;;;18.30;1.00;;;;;;5051916;28;20705;-52
2022/06/29 05:26:03;;;;;;;8.17;7.23;;;18.30;99.90;;;;;;5051368;28;20193;-50
2022/06/29 05:28:30;;;;;;;6.80;6.20;;;18.30;1.00;;;;;;5048122;28;20226;-52
2022/06/29 05:30:57;;;;;;;10.63;7.37;;;18.50;1.00;;;;;;5027108;28;20296;-52
2022/06/29 05:33:24;;;;;;;10.40;6.73;;;18.60;99.90;;;;;;5049850;28;20206;-54
2022/06/29 05:35:50;;;;;;;9.00;6.60;;;18.80;1.00;;;;;;5049831;28;20246;-54
2022/06/29 05:38:18;;;;;;;7.37;6.77;;;19.00;1.00;;;;;;5049939;28;20641;-51
2022/06/29 05:40:44;;;;;;;7.27;6.57;;;19.00;1.00;;;;;;5049794;28;20205;-50
2022/06/29 05:43:11;;;;;;;8.07;6.10;;;19.20;1.00;;;;;;5044814;28;20779;-53
2022/06/29 05:45:38;;;;;;;7.03;6.30;;;19.30;22.10;;;;;;5049502;28;20244;-53
2022/06/29 05:48:05;;;;;;;6.93;6.07;;;19.50;1.00;;;;;;5049725;28;20257;-53
2022/06/29 05:50:32;;;;;;;6.83;6.13;;;19.60;46.50;;;;;;5051282;28;20577;-50
2022/06/29 05:52:59;;;;;;;6.70;6.00;;;19.60;6.40;;;;;;5051396;28;20277;-51
2022/06/29 05:55:26;;;;;;;6.27;5.67;;;19.60;99.90;;;;;;5052247;28;20228;-50
2022/06/29 05:57:53;;;;;;;7.47;6.53;;;19.70;1.00;;;;;;5051833;28;20242;-52
2022/06/29 06:00:20;;;;;;;7.27;6.47;;;19.70;99.90;;;;;;5050521;28;20328;-52
2022/06/29 06:02:51;;;;;;;6.83;6.23;;;19.80;1.00;;;;;;5051851;28;20208;-51
2022/06/29 06:05:18;;;;;;;6.77;6.07;;;19.80;91.00;;;;;;5055395;28;20292;-53
2022/06/29 06:07:45;;;;;;;8.50;6.17;;;19.80;99.90;;;;;;5052106;28;20206;-52
2022/06/29 06:10:12;;;;;;;6.53;5.90;;;19.80;99.90;;;;;;5053443;28;20218;-52
2022/06/29 06:12:39;;;;;;;8.00;5.83;;;19.90;1.00;;;;;;5051971;28;20624;-53
2022/06/29 06:15:07;;;;;;;7.70;5.93;;;19.90;1.00;;;;;;5050780;28;20687;-52
2022/06/29 06:17:34;;;;;;;7.97;6.47;;;19.90;1.00;;;;;;5051268;28;20262;-52
2022/06/29 06:20:02;;;;;;;6.87;6.00;;;19.80;1.00;;;;;;5050821;28;20724;-52
2022/06/29 06:22:29;;;;;;;7.37;6.57;;;19.90;1.00;;;;;;5062161;28;20603;-54
2022/06/29 06:24:57;;;;;;;8.53;5.70;;;20.00;1.00;;;;;;5049723;28;20664;-52
2022/06/29 06:27:23;;;;;;;8.43;7.23;;;20.10;1.00;;;;;;5049044;28;20229;-52
2022/06/29 06:29:50;;;;;;;8.40;6.33;;;20.20;99.90;;;;;;5048888;28;20736;-54
2022/06/29 06:32:17;;;;;;;8.77;6.60;;;20.20;1.00;;;;;;5046696;28;20288;-53
2022/06/29 06:34:44;;;;;;;7.27;6.43;;;20.20;93.10;;;;;;5048318;28;20760;-54
2022/06/29 06:37:11;;;;;;;6.67;6.00;;;20.30;99.90;;;;;;5046605;28;20308;-55
2022/06/29 06:39:38;;;;;;;6.23;5.67;;;20.50;99.90;;;;;;5053790;28;20261;-53
2022/06/29 06:42:05;;;;;;;6.77;6.17;;;20.70;99.90;;;;;;5053918;28;20213;-51
2022/06/29 06:44:31;;;;;;;6.80;5.77;;;20.90;25.50;;;;;;5044378;28;20770;-52
2022/06/29 06:47:00;;;;;;;7.13;6.43;;;21.00;1.00;;;;;;5044298;28;20199;-52
2022/06/29 06:49:28;;;;;;;7.50;6.10;;;21.00;1.00;;;;;;5047178;28;20674;-51
2022/06/29 06:51:54;;;;;;;6.33;5.73;;;21.00;1.00;;;;;;5045743;28;20225;-52
2022/06/29 06:54:21;;;;;;;9.77;7.00;;;21.20;1.00;;;;;;5046762;28;20327;-52
2022/06/29 06:56:48;;;;;;;6.57;5.97;;;21.20;1.00;;;;;;5050831;28;20211;-53
2022/06/29 06:59:15;;;;;;;7.10;5.97;;;21.30;1.00;;;;;;5044595;28;20278;-53
2022/06/29 07:01:42;;;;;;;7.23;6.17;;;21.40;1.00;;;;;;5040342;28;20240;-54
2022/06/29 07:04:15;;;;;;;7.13;6.10;;;21.40;99.90;;;;;;5046036;28;20199;-54
2022/06/29 07:06:42;;;;;;;6.73;5.80;;;21.50;99.90;;;;;;5048908;28;20963;-54
2022/06/29 07:09:09;;;;;;;7.30;6.60;;;21.90;1.00;;;;;;5051170;28;20662;-55
2022/06/29 07:11:36;;;;;;;10.00;6.37;;;22.20;99.90;;;;;;5046462;28;20244;-51
2022/06/29 07:14:03;;;;;;;7.37;6.67;;;22.30;1.00;;;;;;5048341;28;20428;-54
2022/06/29 07:16:30;;;;;;;7.73;6.50;;;22.50;96.10;;;;;;5047306;28;20706;-52
2022/06/29 07:18:57;;;;;;;7.80;6.47;;;22.50;99.90;;;;;;5029647;28;20747;-53
2022/06/29 07:21:24;;;;;;;8.07;6.90;;;22.50;99.90;;;;;;5050314;28;20683;-52
2022/06/29 07:23:51;;;;;;;7.07;6.27;;;22.60;99.90;;;;;;5034154;28;20597;-52
2022/06/29 07:26:18;;;;;;;9.10;7.50;;;23.00;99.90;;;;;;5052131;28;20221;-52
2022/06/29 07:28:45;;;;;;;7.47;6.77;;;23.00;50.60;;;;;;5047112;28;20286;-55
2022/06/29 07:31:11;;;;;;;9.30;6.70;;;23.00;28.30;;;;;;5041661;28;20408;-52
2022/06/29 07:33:38;;;;;;;8.90;7.07;;;23.30;99.90;;;;;;5049453;28;20394;-54
2022/06/29 07:36:06;;;;;;;7.43;6.73;;;23.50;1.00;;;;;;5049138;28;20209;-54
2022/06/29 07:38:37;;;;;;;8.03;7.20;;;23.40;2.30;;;;;;5027635;28;20212;-54
2022/06/29 07:41:04;;;;;;;8.80;6.73;;;23.70;1.00;;;;;;5034828;28;20666;-53
2022/06/29 07:43:31;;;;;;;9.37;7.30;;;23.60;1.00;;;;;;5051019;28;20616;-54
2022/06/29 07:45:58;;;;;;;8.90;6.20;;;23.80;1.00;;;;;;5044198;28;20747;-53
2022/06/29 07:48:25;;;;;;;7.23;6.53;;;24.20;1.00;;;;;;5046402;28;20195;-53
2022/06/29 07:50:53;;;;;;;6.30;5.73;;;24.10;1.00;;;;;;5045201;28;20686;-53
2022/06/29 07:53:22;;;;;;;8.40;5.60;;;24.00;1.00;;;;;;5049629;28;20244;-51
2022/06/29 07:55:49;;;;;;;5.50;4.80;;;24.20;1.00;;;;;;5048931;28;20719;-54
2022/06/29 07:58:16;;;;;;;7.07;5.30;;;24.50;1.00;;;;;;5051284;28;20775;-53
2022/06/29 08:00:44;;;;;;;7.43;5.07;;;24.80;1.00;;;;;;5048416;28;20830;-53
2022/06/29 08:03:11;;;;;;;6.87;4.97;;;24.90;1.00;;;;;;5051693;28;20455;-52
2022/06/29 08:05:45;;;;;;;5.00;4.53;;;25.10;1.00;;;;;;5053042;28;20251;-55
2022/06/29 08:08:12;;;;;;;6.47;4.60;;;26.00;99.90;;;;;;5049367;28;20544;-54
2022/06/29 08:10:39;;;;;;;4.33;3.57;;;26.20;99.90;;;;;;5044053;28;20582;-54
2022/06/29 08:13:06;;;;;;;3.57;2.90;;;26.50;99.90;;;;;;5045364;28;20726;-51
2022/06/29 08:15:33;;;;;;;5.17;2.87;;;26.60;8.90;;;;;;5048544;28;20588;-54
2022/06/29 08:17:59;;;;;;;3.20;2.90;;;27.60;1.00;;;;;;5046972;28;20230;-51
2022/06/29 08:20:28;;;;;;;4.73;2.70;;;27.30;1.00;;;;;;5050329;28;20300;-50
2022/06/29 08:22:55;;;;;;;5.27;2.60;;;28.50;1.00;;;;;;5052968;28;20768;-50
2022/06/29 08:25:22;;;;;;;6.00;2.40;;;28.20;1.00;;;;;;5054631;28;20314;-50
2022/06/29 08:27:52;;;;;;;5.23;2.67;;;28.00;1.00;;;;;;5051241;28;20652;-54
2022/06/29 08:30:19;;;;;;;2.97;2.00;;;28.40;1.00;;;;;;5051413;28;20195;-53
2022/06/29 08:32:47;;;;;;;3.90;2.28;;;28.20;1.00;;;;;;5048300;28;20482;-49
2022/06/29 08:35:15;;;;;;;2.88;2.42;;;29.70;1.00;;;;;;5053501;28;20242;-51
2022/06/29 08:37:44;;;;;;;3.88;2.10;;;29.20;1.00;;;;;;5049599;28;20191;-52
2022/06/29 08:40:14;;;;;;;3.72;2.38;;;29.20;1.00;;;;;;5048894;28;20295;-50
2022/06/29 08:42:41;;;;;;;3.40;2.38;;;29.80;1.00;;;;;;5052077;28;20212;-51
2022/06/29 08:45:09;;;;;;;5.72;2.17;;;29.90;1.00;;;;;;5037706;28;20317;-51
2022/06/29 08:47:37;;;;;;;2.47;2.25;;;29.80;1.00;;;;;;5046525;28;20611;-52
2022/06/29 08:50:09;;;;;;;3.88;2.00;;;29.70;1.00;;;;;;5054677;28;20277;-50
2022/06/29 08:52:38;;;;;;;2.45;1.85;;;29.00;1.00;;;;;;5052725;28;20270;-50
2022/06/29 08:55:06;;;;;;;2.97;1.70;;;28.80;1.00;;;;;;5053278;28;20251;-50
2022/06/29 08:57:37;;;;;;;2.90;1.80;;;28.20;1.00;;;;;;5053188;28;20207;-50
2022/06/29 09:00:06;;;;;;;3.23;1.87;;;27.60;1.00;;;;;;5054417;28;20663;-51
2022/06/29 09:02:35;;;;;;;1.60;1.50;;;27.70;1.00;;;;;;5051186;28;20203;-53
2022/06/29 09:05:03;;;;;;;3.77;1.77;;;28.50;1.00;;;;;;5051711;28;20261;-51
2022/06/29 09:07:30;;;;;;;4.00;1.80;;;29.30;1.00;;;;;;5052372;28;20355;-50
2022/06/29 09:09:58;;;;;;;1.87;1.70;;;28.40;1.00;;;;;;5052281;28;20245;-51
2022/06/29 09:12:25;;;;;;;3.60;2.33;;;27.70;1.00;;;;;;5043040;28;20211;-50
2022/06/29 09:14:52;;;;;;;2.20;1.47;;;27.80;1.00;;;;;;5032100;28;20202;-52
2022/06/29 09:17:19;;;;;;;3.00;1.47;;;28.20;1.00;;;;;;5054150;28;20191;-49
2022/06/29 09:19:47;;;;;;;4.33;1.70;;;29.00;1.00;;;;;;5051396;28;20299;-49
2022/06/29 09:22:24;;;;;;;3.60;1.40;;;29.70;1.00;;;;;;5052531;28;20242;-51
2022/06/29 09:24:52;;;;;;;3.67;1.73;;;30.00;1.00;;;;;;5050556;28;20208;-52
2022/06/29 09:27:43;;;;;;;1.73;1.40;;;30.00;1.00;;;;;;5038499;28;20199;-54
2022/06/29 09:30:25;;;;;;;3.23;1.33;;;28.80;1.00;;;;;;5048972;28;20246;-50
2022/06/29 09:33:11;;;;;;;1.50;1.30;;;28.60;1.00;;;;;;5050766;28;20214;-50
2022/06/29 09:35:39;;;;;;;2.73;1.60;;;29.40;1.00;;;;;;5049787;28;20280;-51
2022/06/29 09:38:23;;;;;;;1.43;1.10;;;29.60;1.00;;;;;;5046972;28;20230;-50
2022/06/29 09:41:07;;;;;;;3.63;1.30;;;30.20;1.00;;;;;;5052418;28;20195;-51
2022/06/29 09:43:40;;;;;;;2.60;1.30;;;30.10;1.00;;;;;;5053038;28;20219;-51
2022/06/29 09:46:09;;;;;;;3.10;1.50;;;30.00;1.00;;;;;;5046828;28;20303;-51
2022/06/29 09:48:38;;;;;;;1.95;1.38;;;29.50;1.00;;;;;;5049399;28;20755;-51
2022/06/29 09:54:12;;;;;;;1.77;1.02;;;29.50;1.00;;;;;;5052851;28;20667;-51
2022/06/29 09:56:47;;;;;;;2.35;1.40;;;29.50;1.00;;;;;;5051630;28;20191;-51
2022/06/29 10:05:04;;;;;;;2.13;1.30;;;29.40;1.00;;;;;;5057339;28;20215;-50
2022/06/29 10:07:33;;;;;;;3.83;1.40;;;28.90;1.00;;;;;;5056478;28;20200;-53
2022/06/29 10:10:02;;;;;;;4.03;1.27;;;29.30;1.00;;;;;;5057944;28;20769;-51
2022/06/29 10:15:57;;;;;;;2.37;1.33;;;28.80;1.00;;;;;;5053485;28;20228;-50
2022/06/29 10:18:55;;;;;;;2.63;1.20;;;29.50;1.00;;;;;;5057203;28;20215;-51
2022/06/29 10:21:24;;;;;;;2.00;1.30;;;29.60;1.00;;;;;;5052759;28;20587;-52
2022/06/29 10:24:01;;;;;;;1.57;1.40;;;29.90;1.00;;;;;;5052939;28;20200;-50
2022/06/29 10:26:35;;;;;;;2.55;1.20;;;29.80;1.00;;;;;;5052898;28;20309;-51
2022/06/29 10:29:07;;;;;;;2.83;1.30;;;29.70;1.00;;;;;;5051574;28;20196;-50
2022/06/29 10:31:56;;;;;;;2.13;1.02;;;29.40;1.00;;;;;;5056159;28;20253;-51
2022/06/29 10:34:33;;;;;;;5.45;1.42;;;29.40;1.00;;;;;;5055914;28;20290;-52
2022/06/29 10:37:03;;;;;;;1.90;1.23;;;29.10;1.00;;;;;;5057916;28;20717;-52
2022/06/29 10:39:45;;;;;;;1.60;1.40;;;28.80;1.00;;;;;;5056221;28;20191;-52
2022/06/29 10:45:09;;;;;;;4.32;1.60;;;28.80;1.00;;;;;;5051889;28;20203;-52
2022/06/29 10:47:36;;;;;;;5.40;1.70;;;28.60;1.00;;;;;;5053219;28;20223;-52
2022/06/29 10:50:19;;;;;;;3.22;1.40;;;28.20;1.00;;;;;;5051712;28;20303;-51
2022/06/29 10:52:48;;;;;;;3.90;1.47;;;28.00;1.00;;;;;;5060880;28;20200;-50
2022/06/29 10:55:16;;;;;;;1.80;1.17;;;27.40;1.00;;;;;;5053686;28;20238;-54
2022/06/29 10:57:45;;;;;;;3.23;1.40;;;27.20;1.00;;;;;;5048251;28;20208;-51
2022/06/29 11:00:23;;;;;;;4.93;1.40;;;27.40;1.00;;;;;;5054916;28;20312;-51
2022/06/29 11:02:50;;;;;;;1.90;1.20;;;27.50;1.00;;;;;;5056270;28;20210;-52
2022/06/29 11:05:17;;;;;;;2.17;1.60;;;28.30;1.00;;;;;;5055911;28;20344;-52
2022/06/29 11:13:30;;;;;;;3.03;1.50;;;29.30;1.00;;;;;;5042458;28;20232;-52
2022/06/29 11:15:59;;;;;;;3.15;1.00;;;30.30;1.00;;;;;;5052900;28;20231;-51
2022/06/29 11:18:32;;;;;;;1.85;1.27;;;29.10;1.00;;;;;;5053871;28;20203;-54
2022/06/29 11:21:03;;;;;;;3.00;1.15;;;28.10;1.00;;;;;;5054409;28;20212;-50
2022/06/29 11:23:32;;;;;;;4.18;1.20;;;27.80;1.00;;;;;;5053620;28;20227;-51
2022/06/29 11:26:01;;;;;;;1.60;1.15;;;27.60;1.00;;;;;;5052510;28;20734;-51
2022/06/29 11:28:36;;;;;;;2.45;1.20;;;27.40;1.00;;;;;;5051002;28;20306;-51
2022/06/29 11:31:09;;;;;;;2.30;1.40;;;27.50;1.00;;;;;;5055254;28;20200;-52
2022/06/29 11:33:44;;;;;;;2.67;1.30;;;27.30;1.00;;;;;;5056624;28;20223;-51
2022/06/29 11:36:19;;;;;;;5.07;2.75;;;28.10;1.00;;;;;;5052414;28;20957;-51
2022/06/29 11:38:49;;;;;;;1.27;1.00;;;29.70;1.00;;;;;;5056092;28;20199;-51
2022/06/29 11:43:03;;;;;;;1.95;1.00;;;28.70;1.00;;;;;;5051151;28;20207;-50
2022/06/29 11:44:28;;;;;;;1.58;1.25;;;28.30;1.00;;;;;;5051504;28;20254;-54
2022/06/29 11:46:56;;;;;;;2.28;1.20;;;29.30;1.00;;;;;;5052222;28;20220;-51
2022/06/29 11:49:39;;;;;;;2.03;1.10;;;30.20;1.00;;;;;;5051023;28;20294;-51
2022/06/29 11:52:08;;;;;;;2.30;1.10;;;31.10;1.00;;;;;;5051751;28;20523;-52
2022/06/29 11:54:37;;;;;;;2.05;1.13;;;30.10;1.00;;;;;;5050479;28;20613;-50
2022/06/29 11:57:14;;;;;;;3.17;1.00;;;30.30;1.00;;;;;;5055353;28;20230;-52
2022/06/29 11:59:44;;;;;;;1.77;1.05;;;30.30;1.00;;;;;;5051742;28;20301;-51
2022/06/29 12:02:12;;;;;;;1.25;1.00;;;30.40;1.00;;;;;;5048994;28;20334;-51
2022/06/29 12:04:42;;;;;;;5.45;1.30;;;31.70;1.00;;;;;;5049831;28;20204;-52
2022/06/29 12:07:10;;;;;;;1.13;0.95;;;31.50;1.00;;;;;;5064665;28;20298;-52
2022/06/29 12:09:39;;;;;;;4.80;1.08;;;30.20;1.00;;;;;;5049317;28;20231;-52
2022/06/29 12:12:10;;;;;;;5.60;1.35;;;30.60;1.00;;;;;;5048727;28;20592;-54
2022/06/29 12:14:37;;;;;;;1.70;1.23;;;30.50;1.00;;;;;;5047847;28;20199;-50
2022/06/29 12:17:05;;;;;;;1.42;1.30;;;29.60;1.00;;;;;;5049227;28;20207;-51
2022/06/29 12:19:33;;;;;;;5.65;1.13;;;30.30;1.00;;;;;;5052812;28;20214;-53
2022/06/29 12:22:00;;;;;;;1.88;1.10;;;30.10;1.00;;;;;;5044394;28;20303;-51
2022/06/29 12:24:28;;;;;;;1.55;1.27;;;30.10;1.00;;;;;;5051095;28;20270;-52
2022/06/29 12:26:55;;;;;;;2.63;1.58;;;30.80;1.00;;;;;;5049602;28;20220;-52
2022/06/29 12:29:22;;;;;;;3.25;1.45;;;30.30;1.00;;;;;;5050447;28;21034;-51
2022/06/29 12:31:54;;;;;;;1.75;1.10;;;29.80;1.00;;;;;;5049481;28;20196;-49
2022/06/29 12:34:21;;;;;;;2.80;1.10;;;30.20;1.00;;;;;;5052778;28;20547;-53
2022/06/29 12:36:58;;;;;;;1.40;0.98;;;29.30;1.00;;;;;;5051891;28;20207;-52
2022/06/29 12:39:25;;;;;;;1.88;1.15;;;29.30;1.00;;;;;;5046438;28;20212;-51
2022/06/29 12:41:53;;;;;;;1.60;1.33;;;29.50;1.00;;;;;;5047318;28;20662;-52
2022/06/29 12:44:21;;;;;;;3.20;1.33;;;29.50;1.00;;;;;;5049906;28;20634;-52
2022/06/29 12:46:48;;;;;;;5.20;1.27;;;29.50;1.00;;;;;;5047500;28;20590;-52
2022/06/29 12:49:15;;;;;;;2.35;1.17;;;29.80;1.00;;;;;;5047886;28;20334;-52
2022/06/29 12:51:42;;;;;;;4.15;1.48;;;29.70;1.00;;;;;;5050936;28;20203;-52
2022/06/29 12:54:09;;;;;;;2.22;1.40;;;29.00;1.00;;;;;;5049317;28;20223;-52
2022/06/29 12:56:36;;;;;;;3.17;1.60;;;28.60;1.00;;;;;;5046645;28;20203;-54
2022/06/29 12:59:03;;;;;;;2.22;1.48;;;29.10;1.00;;;;;;5048986;28;20815;-52
2022/06/29 13:01:30;;;;;;;2.22;1.38;;;28.80;1.00;;;;;;5046997;28;20285;-52
2022/06/29 13:04:01;;;;;;;4.23;1.40;;;28.50;1.00;;;;;;5049260;28;20254;-52
2022/06/29 13:06:28;;;;;;;1.40;1.20;;;28.10;1.00;;;;;;5046295;28;20321;-52
2022/06/29 13:08:55;;;;;;;2.17;1.30;;;27.80;1.00;;;;;;5048016;28;20292;-52
2022/06/29 13:11:22;;;;;;;2.03;1.30;;;27.70;1.00;;;;;;5044080;28;20630;-52
2022/06/29 13:13:49;;;;;;;2.23;1.60;;;28.00;1.00;;;;;;5049409;28;20208;-51
2022/06/29 13:16:16;;;;;;;3.33;1.47;;;28.70;1.00;;;;;;5047472;28;20308;-51
2022/06/29 13:18:43;;;;;;;1.43;1.30;;;29.10;1.00;;;;;;5048485;28;20196;-53
2022/06/29 13:21:10;;;;;;;2.03;1.43;;;29.30;1.00;;;;;;5052623;28;20350;-53
2022/06/29 13:23:37;;;;;;;2.23;1.30;;;29.20;1.00;;;;;;5049532;28;20299;-51
2022/06/29 13:26:04;;;;;;;1.63;1.30;;;29.40;1.00;;;;;;5051143;28;20636;-51
2022/06/29 13:28:31;;;;;;;2.77;1.50;;;29.00;1.00;;;;;;5051309;28;20202;-52